Time;durP1;ratioP1;P1;durP2;ratioP2;P2;SDS_P1;SDS_P2;PMS_P1;PMS_P2;Temp;Humidity;BMP_temperature;BMP_pressure;BME280_temperature;BME280_humidity;BME280_pressure;Samples;Min_cycle;Max_cycle;Signal;HPM_P1;HPM_P2
2023/10/22 00:02:18;;;;;;;;;7.67;2.00;;;;;14.23;75.74;99741.19;5038040;28;46216;-65
2023/10/22 00:04:44;;;;;;;;;5.00;2.33;;;;;14.14;76.28;99742.31;5038076;28;45448;-64
2023/10/22 00:07:14;;;;;;;;;4.00;2.00;;;;;14.04;75.98;99730.31;5038314;28;45322;-65
2023/10/22 00:09:40;;;;;;;;;4.33;2.00;;;;;14.09;76.43;99749.47;5054788;28;45606;-64
2023/10/22 00:12:06;;;;;;;;;0.00;0.00;;;;;14.14;76.04;99742.31;5039458;28;45389;-64
2023/10/22 00:14:32;;;;;;;;;3.33;2.00;;;;;14.19;76.41;99758.88;5038354;28;45350;-64
2023/10/22 00:16:57;;;;;;;;;1.67;1.33;;;;;14.16;76.02;99756.28;5038204;28;45344;-65
2023/10/22 00:19:23;;;;;;;;;4.00;1.00;;;;;14.16;75.81;99758.94;5036307;28;45230;-66
2023/10/22 00:21:55;;;;;;;;;6.33;3.00;;;;;14.06;75.64;99747.78;5025086;28;45494;-65
2023/10/22 00:24:20;;;;;;;;;5.33;1.67;;;;;14.27;75.26;99777.06;5036211;28;45653;-65
2023/10/22 00:26:46;;;;;;;;;3.67;1.67;;;;;14.09;74.83;99749.47;5027665;28;45370;-65
2023/10/22 00:29:12;;;;;;;;;5.00;2.33;;;;;14.24;75.22;99770.13;5023787;28;45465;-63
2023/10/22 00:31:38;;;;;;;;;6.67;1.00;;;;;14.30;75.06;99777.84;5024116;28;46571;-64
2023/10/22 00:34:04;;;;;;;;;5.00;1.67;;;;;14.11;75.04;99751.16;5028153;28;45357;-65
2023/10/22 00:36:30;;;;;;;;;2.67;1.67;;;;;14.32;74.91;99789.19;5029067;28;45483;-64
2023/10/22 00:38:55;;;;;;;;;3.00;2.33;;;;;14.04;74.96;99746.13;5030675;28;45506;-66
2023/10/22 00:41:21;;;;;;;;;5.67;1.67;;;;;14.22;75.29;99790.38;5020390;28;45363;-65
2023/10/22 00:43:47;;;;;;;;;4.00;2.67;;;;;14.08;75.24;99768.81;5016919;28;45416;-64
2023/10/22 00:46:22;;;;;;;;;5.33;1.33;;;;;14.27;74.87;99787.63;5020512;28;45930;-65
2023/10/22 00:48:48;;;;;;;;;9.33;2.00;;;;;14.21;74.35;99786.00;5017315;28;46216;-65
2023/10/22 00:51:15;;;;;;;;;1.33;1.33;;;;;14.21;74.55;99784.25;5017147;28;46038;-65
2023/10/22 00:53:52;;;;;;;;;2.33;1.00;;;;;14.11;74.52;99766.09;5017170;28;45624;-65
2023/10/22 00:56:23;;;;;;;;;4.00;2.00;;;;;14.15;74.68;99788.81;5042933;28;45299;-65
2023/10/22 00:59:12;;;;;;;;;3.33;2.00;;;;;14.03;74.42;99778.63;5020157;28;45565;-66
2023/10/22 01:01:45;;;;;;;;;7.67;3.00;;;;;14.12;74.48;99781.00;5027590;28;47574;-64
2023/10/22 01:04:18;;;;;;;;;4.00;2.00;;;;;13.66;74.15;99716.44;5036003;28;45822;-66
2023/10/22 01:07:07;;;;;;;;;4.00;1.00;;;;;13.97;74.09;99764.69;5022489;28;45405;-67
2023/10/22 01:09:36;;;;;;;;;3.67;2.00;;;;;14.08;74.57;99797.78;5027441;28;45459;-64
2023/10/22 01:12:04;;;;;;;;;4.00;2.00;;;;;13.97;74.29;99782.28;5017432;28;46334;-64
2023/10/22 01:14:30;;;;;;;;;5.00;1.00;;;;;13.94;74.37;99809.53;5015616;28;45394;-64
2023/10/22 01:16:56;;;;;;;;;6.33;3.00;;;;;13.68;74.91;99775.16;5028748;28;45272;-64
2023/10/22 01:19:22;;;;;;;;;1.67;0.33;;;;;13.93;74.81;99821.00;5029690;28;45619;-65
2023/10/22 01:21:48;;;;;;;;;3.33;2.00;;;;;14.01;74.69;99826.06;5025507;28;46010;-65
2023/10/22 01:24:14;;;;;;;;;4.00;2.33;;;;;13.94;74.47;99813.97;5036653;28;45323;-63
2023/10/22 01:26:43;;;;;;;;;3.33;1.67;;;;;13.99;74.26;99833.97;5037003;28;45416;-65
2023/10/22 01:29:10;;;;;;;;;2.00;0.33;;;;;13.94;74.63;99833.25;5037267;28;45485;-64
2023/10/22 01:31:36;;;;;;;;;3.00;1.00;;;;;13.91;74.92;99841.22;5036886;28;45971;-65
2023/10/22 01:34:02;;;;;;;;;5.00;3.00;;;;;13.91;74.54;99830.69;5036675;28;45379;-65
2023/10/22 01:36:27;;;;;;;;;3.67;1.00;;;;;13.87;74.85;99834.31;5036644;28;45436;-64
2023/10/22 01:38:53;;;;;;;;;3.33;2.00;;;;;13.73;74.51;99805.69;5037337;28;45441;-64
2023/10/22 01:41:18;;;;;;;;;3.00;2.00;;;;;13.96;74.38;99833.22;5036579;28;46166;-64
2023/10/22 01:43:44;;;;;;;;;7.00;3.00;;;;;14.01;73.96;99833.94;5036831;28;45394;-64
2023/10/22 01:46:09;;;;;;;;;4.67;1.67;;;;;14.01;73.71;99833.94;5036992;28;45442;-63
2023/10/22 01:48:37;;;;;;;;;4.33;1.00;;;;;13.84;73.80;99810.69;5037141;28;45409;-65
2023/10/22 01:51:03;;;;;;;;;1.67;1.67;;;;;13.94;74.16;99837.66;5051746;28;46635;-64
2023/10/22 01:53:29;;;;;;;;;1.33;1.33;;;;;14.02;73.94;99840.06;5037151;28;45476;-64
2023/10/22 01:55:55;;;;;;;;;6.67;2.00;;;;;14.04;73.65;99844.38;5038025;28;45833;-64
2023/10/22 01:58:20;;;;;;;;;2.67;1.67;;;;;14.05;73.76;99850.50;5029344;28;45568;-64
2023/10/22 02:00:46;;;;;;;;;6.00;1.33;;;;;13.98;73.13;99842.78;5036293;28;45875;-64
2023/10/22 02:03:11;;;;;;;;;4.33;1.00;;;;;14.01;73.39;99847.09;5037221;28;45402;-64
2023/10/22 02:05:37;;;;;;;;;4.67;1.00;;;;;13.82;73.35;99820.41;5023101;28;45413;-65
2023/10/22 02:08:03;;;;;;;;;3.00;2.00;;;;;13.96;73.51;99838.47;5036775;28;45522;-65
2023/10/22 02:10:32;;;;;;;;;2.00;1.67;;;;;13.82;73.50;99825.66;5052788;28;46806;-64
2023/10/22 02:12:59;;;;;;;;;4.00;3.00;;;;;13.97;73.15;99854.22;5050644;28;45497;-65
2023/10/22 02:15:27;;;;;;;;;4.00;1.33;;;;;13.91;73.81;99857.03;5052046;28;45310;-64
2023/10/22 02:17:53;;;;;;;;;4.67;3.00;;;;;13.79;73.96;99845.03;5037559;28;45318;-65
2023/10/22 02:20:19;;;;;;;;;5.33;1.33;;;;;13.94;73.30;99859.56;5036488;28;45482;-65
2023/10/22 02:22:44;;;;;;;;;6.00;1.67;;;;;13.63;73.38;99813.88;5036409;28;45310;-65
2023/10/22 02:25:11;;;;;;;;;4.67;2.00;;;;;13.41;73.47;99789.88;5054519;28;45362;-65
2023/10/22 02:27:36;;;;;;;;;1.67;0.67;;;;;13.73;73.43;99855.69;5053983;28;45552;-64
2023/10/22 02:30:02;;;;;;;;;3.00;2.33;;;;;13.89;73.70;99879.03;5036361;28;45574;-65
2023/10/22 02:32:31;;;;;;;;;4.33;1.00;;;;;13.79;73.56;99868.72;5034854;28;45525;-65
2023/10/22 02:34:56;;;;;;;;;2.00;2.00;;;;;13.93;73.28;99894.69;5034569;28;45527;-64
2023/10/22 02:37:23;;;;;;;;;4.33;2.00;;;;;13.65;73.92;99856.81;5039974;28;45523;-64
2023/10/22 02:39:49;;;;;;;;;5.00;2.33;;;;;13.81;73.78;99879.22;5040660;28;45326;-65
2023/10/22 02:42:14;;;;;;;;;3.00;2.00;;;;;13.71;73.59;99864.53;5054629;28;45417;-64
2023/10/22 02:44:40;;;;;;;;;1.33;1.00;;;;;13.54;73.48;99851.81;5040131;28;45405;-64
2023/10/22 02:47:06;;;;;;;;;4.00;2.67;;;;;13.75;73.78;99893.38;5055256;28;45605;-63
2023/10/22 02:49:32;;;;;;;;;4.33;2.00;;;;;13.82;73.66;99906.41;5039524;28;45555;-64
2023/10/22 02:51:58;;;;;;;;;3.33;1.33;;;;;13.22;73.68;99808.72;5040727;28;45314;-64
2023/10/22 02:54:42;;;;;;;;;5.33;1.00;;;;;13.83;74.02;99910.75;5040813;28;45412;-65
2023/10/22 02:57:08;;;;;;;;;2.67;2.00;;;;;13.76;74.00;99896.88;5035191;28;45558;-64
2023/10/22 02:59:33;;;;;;;;;2.67;1.00;;;;;13.87;73.97;99915.91;5039298;28;46190;-64
2023/10/22 03:01:59;;;;;;;;;6.67;1.00;;;;;13.82;74.07;99925.69;5039272;28;45374;-65
2023/10/22 03:04:24;;;;;;;;;4.00;1.00;;;;;13.87;74.01;99925.56;5039897;28;45523;-65
2023/10/22 03:06:53;;;;;;;;;1.00;1.00;;;;;13.72;73.41;99887.34;5033241;28;45430;-65
2023/10/22 03:09:22;;;;;;;;;3.33;1.33;;;;;13.88;73.15;99907.13;5039392;28;46547;-65
2023/10/22 03:11:48;;;;;;;;;3.00;1.00;;;;;13.97;73.30;99930.56;5039483;28;45655;-64
2023/10/22 03:14:19;;;;;;;;;4.67;1.33;;;;;13.95;73.27;99932.38;5039294;28;45341;-65
2023/10/22 03:16:46;;;;;;;;;3.00;2.67;;;;;13.94;73.46;99932.41;5039126;28;45634;-65
2023/10/22 03:19:11;;;;;;;;;1.00;1.00;;;;;13.86;73.26;99931.75;5038001;28;45754;-65
2023/10/22 03:21:36;;;;;;;;;4.00;1.00;;;;;13.89;73.70;99943.06;5038796;28;45398;-65
2023/10/22 03:24:03;;;;;;;;;4.00;1.00;;;;;13.91;73.76;99945.66;5039564;28;45518;-64
2023/10/22 03:26:30;;;;;;;;;8.00;2.00;;;;;13.87;73.60;99944.84;5040666;28;45601;-64
2023/10/22 03:28:55;;;;;;;;;3.67;1.33;;;;;13.66;73.56;99914.66;5039216;28;46490;-64
2023/10/22 03:31:21;;;;;;;;;3.00;2.00;;;;;13.70;74.13;99928.63;5038673;28;45460;-63
2023/10/22 03:33:47;;;;;;;;;6.33;1.00;;;;;13.77;73.81;99940.72;5038794;28;45532;-65
2023/10/22 03:36:14;;;;;;;;;2.67;1.67;;;;;13.77;74.35;99946.84;5038303;28;45440;-65
2023/10/22 03:38:40;;;;;;;;;6.67;1.00;;;;;13.75;74.40;99946.00;5038690;28;45357;-64
2023/10/22 03:41:06;;;;;;;;;1.67;1.67;;;;;13.76;74.96;99949.50;5038191;28;45420;-65
2023/10/22 03:43:34;;;;;;;;;2.33;2.00;;;;;13.77;75.27;99951.25;5038661;28;45435;-65
2023/10/22 03:46:01;;;;;;;;;4.67;2.00;;;;;13.75;75.64;99967.06;5038491;28;45513;-65
2023/10/22 03:48:28;;;;;;;;;2.67;1.00;;;;;13.77;75.50;99974.94;5038111;28;45566;-64
2023/10/22 03:50:54;;;;;;;;;2.67;1.00;;;;;13.78;75.45;99979.28;5038256;28;45564;-64
2023/10/22 03:53:21;;;;;;;;;4.33;0.33;;;;;13.69;75.56;99975.13;5038578;28;45544;-65
2023/10/22 03:55:47;;;;;;;;;4.00;1.00;;;;;13.60;75.83;99959.53;5038659;28;45340;-65
2023/10/22 03:58:13;;;;;;;;;5.33;1.00;;;;;13.65;76.22;99983.97;5038392;28;45713;-65
2023/10/22 04:00:39;;;;;;;;;2.67;2.00;;;;;13.63;75.72;99980.50;5038495;28;45361;-64
2023/10/22 04:03:05;;;;;;;;;1.00;1.00;;;;;13.58;76.25;99987.66;5038296;28;45487;-65
2023/10/22 04:05:30;;;;;;;;;5.33;2.00;;;;;13.60;76.15;100003.41;5038659;28;45426;-66
2023/10/22 04:07:56;;;;;;;;;3.67;1.00;;;;;13.54;76.50;99997.34;5032011;28;45540;-65
2023/10/22 04:10:21;;;;;;;;;0.33;0.33;;;;;13.55;76.52;100006.16;5038258;28;45367;-65
2023/10/22 04:12:47;;;;;;;;;2.00;1.00;;;;;13.57;76.37;100006.94;5038671;28;45447;-64
2023/10/22 04:15:12;;;;;;;;;1.00;1.00;;;;;13.50;75.94;99987.81;5037583;28;45620;-64
2023/10/22 04:17:44;;;;;;;;;2.33;2.00;;;;;13.69;75.95;100016.34;5038184;28;46137;-64
2023/10/22 04:20:10;;;;;;;;;1.00;1.00;;;;;13.69;76.04;100014.59;5038180;28;45603;-64
2023/10/22 04:22:35;;;;;;;;;1.00;1.00;;;;;13.71;75.59;100022.44;5038251;28;45332;-64
2023/10/22 04:25:01;;;;;;;;;4.00;1.67;;;;;13.72;75.42;100021.56;5039019;28;45394;-65
2023/10/22 04:27:27;;;;;;;;;2.00;0.67;;;;;13.69;75.18;100018.97;5051376;28;45510;-64
2023/10/22 04:29:52;;;;;;;;;1.33;1.33;;;;;13.72;75.67;100026.81;5028680;28;45396;-65
2023/10/22 04:32:18;;;;;;;;;2.67;0.00;;;;;13.69;75.28;100038.28;5037858;28;45548;-65
2023/10/22 04:34:43;;;;;;;;;5.67;1.00;;;;;13.64;75.45;100026.97;5039648;28;45261;-66
2023/10/22 04:37:10;;;;;;;;;2.00;2.00;;;;;13.70;75.63;100041.78;5039312;28;46148;-63
2023/10/22 04:39:36;;;;;;;;;1.67;1.00;;;;;13.68;75.86;100044.44;5025054;28;45211;-65
2023/10/22 04:42:02;;;;;;;;;4.33;2.00;;;;;13.73;75.33;100054.84;5037853;28;45365;-65
2023/10/22 04:44:27;;;;;;;;;4.00;2.67;;;;;13.70;75.75;100053.16;5037790;28;45485;-64
2023/10/22 04:46:53;;;;;;;;;2.33;1.00;;;;;13.67;75.10;100047.13;5037499;28;45415;-64
2023/10/22 04:49:18;;;;;;;;;2.33;1.00;;;;;13.69;75.47;100058.44;5037859;28;46350;-65
2023/10/22 04:51:44;;;;;;;;;2.00;2.00;;;;;13.69;75.67;100063.72;5038032;28;45501;-65
2023/10/22 04:54:16;;;;;;;;;1.67;0.67;;;;;13.59;75.26;100049.88;5036875;28;45409;-64
2023/10/22 04:56:41;;;;;;;;;4.67;1.00;;;;;13.60;75.07;100054.25;5033687;28;47815;-65
2023/10/22 04:59:07;;;;;;;;;5.00;1.33;;;;;13.73;75.15;100068.88;5037512;28;45449;-65
2023/10/22 05:01:33;;;;;;;;;3.00;2.00;;;;;13.73;74.67;100065.38;5038397;28;46473;-65
2023/10/22 05:03:58;;;;;;;;;3.00;2.00;;;;;13.66;74.27;100072.53;5037539;28;45425;-65
2023/10/22 05:06:24;;;;;;;;;4.33;1.00;;;;;13.60;74.95;100077.09;5031844;28;45363;-64
2023/10/22 05:08:54;;;;;;;;;2.00;0.00;;;;;13.52;75.08;100064.06;5019358;28;45417;-65
2023/10/22 05:11:26;;;;;;;;;4.33;2.00;;;;;13.46;75.12;100069.47;5051579;28;45470;-65
2023/10/22 05:13:52;;;;;;;;;3.00;1.67;;;;;13.49;74.84;100085.19;5038386;28;45546;-64
2023/10/22 05:16:18;;;;;;;;;5.67;1.00;;;;;13.31;74.87;100082.03;5037184;28;46223;-65
2023/10/22 05:18:43;;;;;;;;;1.00;1.00;;;;;13.58;74.62;100113.94;5037242;28;45303;-65
2023/10/22 05:21:10;;;;;;;;;4.67;1.00;;;;;13.34;74.58;100070.59;5037607;28;45503;-64
2023/10/22 05:23:35;;;;;;;;;3.00;3.00;;;;;13.60;74.85;100113.91;5049319;28;45363;-64
2023/10/22 05:26:07;;;;;;;;;2.67;1.33;;;;;13.64;74.55;100113.78;5029478;28;46069;-65
2023/10/22 05:28:32;;;;;;;;;3.67;2.00;;;;;13.54;74.57;100105.22;5053334;28;45267;-65
2023/10/22 05:30:58;;;;;;;;;7.67;1.67;;;;;13.68;74.38;100126.00;5036964;28;45487;-65
2023/10/22 05:33:23;;;;;;;;;2.00;1.33;;;;;13.66;74.29;100109.38;5037086;28;45476;-65
2023/10/22 05:35:50;;;;;;;;;4.00;2.00;;;;;13.72;73.78;100137.34;5037245;28;45417;-64
2023/10/22 05:38:15;;;;;;;;;1.67;1.00;;;;;13.69;74.32;100132.13;5037540;28;45413;-65
2023/10/22 05:40:47;;;;;;;;;5.33;1.33;;;;;13.56;74.37;100118.38;5037380;28;45414;-65
2023/10/22 05:43:13;;;;;;;;;2.33;1.33;;;;;13.40;74.16;100086.22;5052332;28;46282;-66
2023/10/22 05:45:39;;;;;;;;;2.67;1.00;;;;;13.68;74.03;100139.16;5038259;28;45444;-65
2023/10/22 05:48:05;;;;;;;;;5.00;1.00;;;;;13.43;73.45;100095.81;5037502;28;45491;-65
2023/10/22 05:50:31;;;;;;;;;1.33;1.00;;;;;13.42;73.97;100113.38;5038140;28;45488;-65
2023/10/22 05:52:59;;;;;;;;;4.00;2.00;;;;;13.54;74.15;100139.44;5050442;28;45501;-65
2023/10/22 05:55:25;;;;;;;;;4.00;1.00;;;;;13.55;74.07;100141.19;5034652;28;46256;-65
2023/10/22 05:57:51;;;;;;;;;1.00;1.00;;;;;13.51;74.40;100134.25;5051657;28;45827;-64
2023/10/22 06:00:17;;;;;;;;;2.33;2.33;;;;;13.62;74.67;100154.19;5037779;28;45546;-65
2023/10/22 06:02:43;;;;;;;;;2.00;2.00;;;;;13.45;74.21;100131.72;5037954;28;45710;-64
2023/10/22 06:05:09;;;;;;;;;4.00;1.67;;;;;13.45;74.90;100147.50;5036746;28;45310;-65
2023/10/22 06:07:35;;;;;;;;;3.67;2.00;;;;;13.43;74.71;100144.06;5022189;28;45474;-65
2023/10/22 06:10:00;;;;;;;;;5.67;2.67;;;;;13.55;74.86;100172.75;5036288;28;45444;-66
2023/10/22 06:12:26;;;;;;;;;0.33;0.33;;;;;13.17;75.02;100120.84;5036707;28;45346;-65
2023/10/22 06:14:52;;;;;;;;;3.33;1.00;;;;;13.39;74.80;100157.28;5037421;28;45523;-65
2023/10/22 06:17:17;;;;;;;;;1.00;1.00;;;;;13.38;75.45;100156.41;5037620;28;45393;-64
2023/10/22 06:19:43;;;;;;;;;2.67;1.00;;;;;13.53;75.52;100192.97;5038288;28;45461;-65
2023/10/22 06:22:09;;;;;;;;;1.00;1.00;;;;;13.54;75.60;100183.31;5038083;28;45473;-65
2023/10/22 06:24:37;;;;;;;;;6.33;2.00;;;;;13.48;75.09;100189.56;5036060;28;45406;-65
2023/10/22 06:27:03;;;;;;;;;2.33;1.00;;;;;13.15;75.84;100136.63;5036693;28;45430;-65
2023/10/22 06:29:29;;;;;;;;;3.00;0.33;;;;;13.54;75.09;100205.22;5037876;28;45336;-66
2023/10/22 06:31:55;;;;;;;;;2.00;2.00;;;;;13.59;75.44;100191.97;5037815;28;45440;-65
2023/10/22 06:34:20;;;;;;;;;2.00;0.67;;;;;13.61;74.96;100184.91;5037567;28;45303;-65
2023/10/22 06:36:46;;;;;;;;;4.00;2.00;;;;;13.70;74.99;100208.44;5036386;28;45469;-64
2023/10/22 06:39:11;;;;;;;;;3.00;1.33;;;;;13.67;75.04;100191.84;5035894;28;45405;-65
2023/10/22 06:41:37;;;;;;;;;3.33;1.33;;;;;13.78;76.06;100213.53;5035002;28;45334;-66
2023/10/22 06:44:03;;;;;;;;;3.67;2.00;;;;;13.77;75.14;100210.03;5035769;28;45554;-64
2023/10/22 06:46:29;;;;;;;;;3.33;0.33;;;;;13.78;74.33;100213.53;5030504;28;45509;-65
2023/10/22 06:48:54;;;;;;;;;1.67;1.00;;;;;13.87;74.73;100230.94;5024397;28;45556;-65
2023/10/22 06:51:22;;;;;;;;;3.00;2.00;;;;;13.91;74.53;100233.47;5031451;28;45471;-65
2023/10/22 06:53:47;;;;;;;;;4.00;0.67;;;;;13.93;74.01;100238.72;5027644;28;45421;-64
2023/10/22 06:56:13;;;;;;;;;2.33;2.00;;;;;13.91;74.53;100245.78;5027976;28;45345;-66
2023/10/22 06:58:39;;;;;;;;;3.67;1.00;;;;;13.89;74.42;100248.41;5023883;28;45432;-65
2023/10/22 07:01:06;;;;;;;;;2.67;2.00;;;;;13.88;74.53;100249.34;5023609;28;45569;-64
2023/10/22 07:03:36;;;;;;;;;2.00;1.00;;;;;13.92;74.35;100250.13;5022118;28;45787;-66
2023/10/22 07:06:02;;;;;;;;;5.00;3.00;;;;;13.93;74.75;100257.16;5021851;28;45801;-65
2023/10/22 07:08:29;;;;;;;;;3.00;2.00;;;;;13.93;74.40;100265.91;5022607;28;45334;-65
2023/10/22 07:10:55;;;;;;;;;0.33;0.00;;;;;13.97;74.60;100267.56;5033246;28;45604;-66
2023/10/22 07:14:06;;;;;;;;;3.00;2.00;;;;;14.03;74.02;100273.63;5033441;28;46587;-65
2023/10/22 07:16:32;;;;;;;;;1.67;1.67;;;;;13.61;74.38;100224.38;5024603;28;45406;-67
2023/10/22 07:18:58;;;;;;;;;2.00;2.00;;;;;13.85;74.28;100251.13;5037357;28;45433;-65
2023/10/22 07:21:24;;;;;;;;;3.67;1.00;;;;;14.07;74.37;100285.81;5022997;28;46836;-65
2023/10/22 07:23:49;;;;;;;;;6.00;3.33;;;;;14.09;73.75;100286.66;5029224;28;45623;-65
2023/10/22 07:26:15;;;;;;;;;4.00;2.00;;;;;14.07;74.17;100289.34;5028889;28;45682;-65
2023/10/22 07:28:44;;;;;;;;;3.33;1.33;;;;;14.03;74.09;100298.19;5024251;28;45563;-65
2023/10/22 07:31:12;;;;;;;;;3.00;1.00;;;;;14.00;74.02;100301.75;5026302;28;45445;-66
2023/10/22 07:33:37;;;;;;;;;2.67;1.67;;;;;13.97;74.25;100314.09;5030007;28;46037;-67
2023/10/22 07:36:07;;;;;;;;;3.33;2.00;;;;;13.87;74.90;100313.38;5021779;28;45489;-67
2023/10/22 07:38:33;;;;;;;;;4.00;1.33;;;;;13.87;74.75;100323.06;5021567;28;45434;-65
2023/10/22 07:41:00;;;;;;;;;5.00;3.00;;;;;13.76;74.89;100329.41;5023780;28;45920;-65
2023/10/22 07:43:28;;;;;;;;;2.00;1.33;;;;;13.79;75.10;100328.47;5028053;28;45583;-64
2023/10/22 07:46:04;;;;;;;;;2.00;2.00;;;;;13.74;75.36;100331.19;5022548;28;45450;-65
2023/10/22 07:48:30;;;;;;;;;1.67;1.33;;;;;13.71;75.63;100336.47;5023599;28;45445;-66
2023/10/22 07:51:08;;;;;;;;;2.00;2.00;;;;;13.71;75.77;100343.50;5019839;28;45386;-64
2023/10/22 07:53:34;;;;;;;;;4.33;2.00;;;;;13.78;75.36;100343.38;5023573;28;45745;-66
2023/10/22 07:56:00;;;;;;;;;3.00;2.00;;;;;13.77;74.90;100327.63;5019559;28;45519;-65
2023/10/22 07:58:25;;;;;;;;;2.67;1.33;;;;;13.79;74.74;100326.69;5021796;28;45630;-65
2023/10/22 08:00:51;;;;;;;;;1.67;1.33;;;;;13.88;74.59;100345.84;5018381;28;45514;-66
2023/10/22 08:03:16;;;;;;;;;1.67;1.67;;;;;13.90;74.97;100349.31;5017925;28;45421;-65
2023/10/22 08:05:42;;;;;;;;;3.67;2.00;;;;;13.93;74.86;100342.25;5017856;28;45423;-66
2023/10/22 08:08:07;;;;;;;;;3.00;1.67;;;;;13.95;74.48;100353.63;5023650;28;45425;-65
2023/10/22 08:10:37;;;;;;;;;1.67;1.67;;;;;13.87;74.21;100339.72;5039371;28;45529;-65
2023/10/22 08:13:03;;;;;;;;;2.00;1.33;;;;;13.96;74.49;100357.97;5038934;28;45432;-65
2023/10/22 08:15:32;;;;;;;;;5.00;3.00;;;;;13.99;74.49;100355.28;5039285;28;45418;-66
2023/10/22 08:17:58;;;;;;;;;5.67;3.33;;;;;14.04;74.36;100352.56;5038085;28;45384;-67
2023/10/22 08:20:23;;;;;;;;;5.00;2.33;;;;;14.12;74.10;100370.88;5038164;28;45487;-67
2023/10/22 08:22:49;;;;;;;;;3.00;2.00;;;;;14.21;73.84;100366.31;5038072;28;46463;-65
2023/10/22 08:25:15;;;;;;;;;2.00;2.00;;;;;14.33;73.92;100375.75;5039342;28;45492;-67
2023/10/22 08:27:41;;;;;;;;;2.00;2.00;;;;;14.39;73.65;100372.97;5038117;28;45307;-65
2023/10/22 08:30:07;;;;;;;;;1.00;1.00;;;;;14.50;73.22;100377.16;5038007;28;45345;-65
2023/10/22 08:32:34;;;;;;;;;8.67;3.00;;;;;14.52;72.88;100375.38;5046549;28;46576;-66
2023/10/22 08:34:59;;;;;;;;;2.67;2.00;;;;;14.54;73.10;100376.25;5032154;28;45417;-66
2023/10/22 08:37:37;;;;;;;;;2.00;2.00;;;;;14.54;74.03;100373.59;5037677;28;45391;-64
2023/10/22 08:40:07;;;;;;;;;3.50;1.00;;;;;14.67;74.77;100384.78;5023122;28;46093;-66
2023/10/22 08:42:36;;;;;;;;;2.67;1.00;;;;;14.76;73.45;100393.38;5037742;28;45367;-65
2023/10/22 08:45:04;;;;;;;;;2.00;2.00;;;;;14.72;73.21;100391.69;5037049;28;45685;-67
2023/10/22 08:47:30;;;;;;;;;2.00;1.33;;;;;14.86;72.81;100396.69;5038127;28;45296;-65
2023/10/22 08:49:56;;;;;;;;;2.00;2.00;;;;;14.44;72.65;100336.00;5038587;28;45361;-65
2023/10/22 08:52:22;;;;;;;;;4.00;2.00;;;;;14.13;72.88;100297.09;5038783;28;46635;-66
2023/10/22 08:54:48;;;;;;;;;3.67;2.00;;;;;14.88;72.35;100396.63;5038580;28;45469;-66
2023/10/22 08:57:16;;;;;;;;;2.33;2.33;;;;;14.91;72.54;100410.63;5034277;28;45432;-66
2023/10/22 08:59:44;;;;;;;;;3.00;2.00;;;;;14.96;72.12;100414.03;5033296;28;45551;-66
2023/10/22 09:02:11;;;;;;;;;6.67;3.00;;;;;14.83;72.66;100418.72;5038787;28;46392;-66
2023/10/22 09:04:40;;;;;;;;;3.67;1.67;;;;;14.80;72.56;100413.47;5038788;28;45413;-66
2023/10/22 09:07:06;;;;;;;;;4.00;2.67;;;;;14.91;72.19;100430.88;5028075;28;45501;-66
2023/10/22 09:09:40;;;;;;;;;4.00;2.33;;;;;14.80;72.08;100413.47;5050358;28;45554;-64
2023/10/22 09:12:10;;;;;;;;;3.33;2.00;;;;;14.85;71.99;100418.66;5037114;28;45444;-68
2023/10/22 09:14:37;;;;;;;;;2.00;2.00;;;;;15.03;75.14;100436.75;5052116;28;45548;-66
2023/10/22 09:17:19;;;;;;;;;3.33;3.33;;;;;14.96;71.93;100419.31;5028990;28;45410;-65
2023/10/22 09:19:49;;;;;;;;;5.00;3.00;;;;;15.10;71.27;100444.53;5042272;28;45483;-66
2023/10/22 09:22:41;;;;;;;;;4.00;2.00;;;;;15.17;70.85;100446.13;5028222;28;46630;-65
2023/10/22 09:25:07;;;;;;;;;4.33;2.00;;;;;14.98;71.16;100412.25;5033211;28;45565;-65
2023/10/22 09:27:33;;;;;;;;;3.00;1.67;;;;;14.95;71.32;100403.50;5036831;28;45308;-67
2023/10/22 09:30:00;;;;;;;;;5.33;1.33;;;;;15.22;70.26;100442.50;5034278;28;45364;-65
2023/10/22 09:32:25;;;;;;;;;5.00;2.33;;;;;14.50;70.20;100308.66;5037697;28;46447;-66
2023/10/22 09:34:52;;;;;;;;;4.00;2.00;;;;;15.45;69.48;100454.31;5036055;28;45475;-66
2023/10/22 09:37:21;;;;;;;;;3.00;1.00;;;;;15.60;68.89;100427.56;5048753;28;45570;-67
2023/10/22 09:39:46;;;;;;;;;5.33;2.00;;;;;16.23;68.04;100415.47;5035292;28;45765;-67
2023/10/22 09:42:14;;;;;;;;;2.00;2.00;;;;;17.14;66.08;100428.81;5035736;28;46573;-66
2023/10/22 09:44:41;;;;;;;;;4.00;2.00;;;;;17.54;62.70;100338.41;5051647;28;45574;-64
2023/10/22 09:47:07;;;;;;;;;2.33;2.00;;;;;18.74;59.89;100381.94;5052034;28;45422;-64
2023/10/22 09:49:35;;;;;;;;;3.00;2.67;;;;;22.03;53.40;100432.34;5036935;28;45418;-66
2023/10/22 09:52:04;;;;;;;;;3.67;1.33;;;;;22.26;51.36;100432.16;5048498;28;45779;-67
2023/10/22 09:54:40;;;;;;;;;2.00;2.00;;;;;21.39;52.00;100422.16;5037076;28;45615;-68
2023/10/22 09:57:13;;;;;;;;;2.67;2.00;;;;;21.16;52.67;100433.91;5036255;28;45405;-68
2023/10/22 09:59:40;;;;;;;;;2.00;2.00;;;;;22.74;50.01;100428.72;5036893;28;45464;-69
2023/10/22 10:02:09;;;;;;;;;3.67;2.00;;;;;24.43;45.43;100402.22;5035208;28;47106;-66
2023/10/22 10:04:35;;;;;;;;;4.50;2.00;;;;;26.41;42.01;100400.13;5036510;28;45447;-67
2023/10/22 10:07:03;;;;;;;;;5.00;1.50;;;;;26.79;40.42;100418.97;5026007;28;45714;-68
2023/10/22 10:09:30;;;;;;;;;2.50;1.00;;;;;26.15;40.65;100434.13;5029449;28;45358;-68
2023/10/22 10:11:59;;;;;;;;;1.00;1.00;;;;;25.19;41.78;100447.53;5035597;28;46445;-66
2023/10/22 10:14:46;;;;;;;;;2.50;1.75;;;;;26.33;40.52;100448.13;5024523;28;45341;-65
2023/10/22 10:17:16;;;;;;;;;5.25;2.25;;;;;24.86;41.52;100448.66;5033935;28;45557;-67
2023/10/22 10:19:42;;;;;;;;;2.00;1.00;;;;;24.09;42.02;100393.56;5020431;28;45487;-65
2023/10/22 10:22:08;;;;;;;;;3.50;1.75;;;;;23.63;43.49;100436.31;5046960;28;48078;-65
2023/10/22 10:24:34;;;;;;;;;3.25;1.50;;;;;23.93;43.32;100449.78;5025439;28;45452;-67
2023/10/22 10:27:00;;;;;;;;;2.25;2.25;;;;;25.55;40.08;100403.22;5016734;28;45735;-66
2023/10/22 10:29:29;;;;;;;;;1.75;1.25;;;;;28.98;35.80;100451.09;5017720;28;45430;-67
2023/10/22 10:32:15;;;;;;;;;4.50;2.00;;;;;30.95;32.88;100447.22;5019060;28;46476;-67
2023/10/22 10:34:50;;;;;;;;;3.80;1.60;;;;;32.39;30.18;100435.94;5035538;28;45778;-66
2023/10/22 10:37:20;;;;;;;;;5.20;2.60;;;;;32.25;29.08;100447.22;5016714;28;45655;-65
2023/10/22 10:39:46;;;;;;;;;4.80;1.80;;;;;33.41;27.46;100437.00;5046385;28;45592;-64
2023/10/22 10:42:36;;;;;;;;;1.20;1.00;;;;;33.72;26.63;100430.25;5026160;28;46604;-66
2023/10/22 10:45:07;;;;;;;;;2.60;2.00;;;;;33.32;26.69;100441.50;5035649;28;45385;-67
2023/10/22 10:47:45;;;;;;;;;2.80;2.80;;;;;32.08;27.73;100436.13;5051712;28;45465;-65
2023/10/22 10:50:18;;;;;;;;;1.00;1.00;;;;;32.64;26.47;100426.31;5039788;28;45532;-66
2023/10/22 10:52:52;;;;;;;;;1.00;1.00;;;;;32.71;26.75;100415.75;5039377;28;45559;-66
2023/10/22 10:55:20;;;;;;;;;1.00;1.00;;;;;31.09;27.65;100446.00;5039480;28;45541;-66
2023/10/22 10:57:50;;;;;;;;;2.00;1.00;;;;;29.70;29.94;100446.13;5038943;28;45476;-66
2023/10/22 11:00:31;;;;;;;;;2.80;1.20;;;;;29.72;29.83;100408.22;5039676;28;45496;-65
2023/10/22 11:03:02;;;;;;;;;1.00;1.00;;;;;32.62;26.67;100425.63;5040083;28;46483;-68
2023/10/22 11:05:39;;;;;;;;;3.60;0.40;;;;;34.56;24.63;100406.31;5039198;28;45562;-67
2023/10/22 11:08:13;;;;;;;;;1.60;1.00;;;;;34.20;25.06;100436.31;5025126;28;45488;-67
2023/10/22 11:10:39;;;;;;;;;1.40;1.40;;;;;34.70;24.84;100405.75;5040690;28;45603;-67
2023/10/22 11:13:09;;;;;;;;;2.00;1.00;;;;;36.04;22.64;100437.66;5039441;28;45684;-68
2023/10/22 11:15:37;;;;;;;;;2.00;1.00;;;;;37.10;22.03;100440.28;5039672;28;45234;-66
2023/10/22 11:18:07;;;;;;;;;2.00;1.00;;;;;36.65;21.33;100400.84;5039338;28;45304;-67
2023/10/22 11:20:34;;;;;;;;;1.20;1.00;;;;;36.75;21.25;100397.06;5032375;28;45734;-67
2023/10/22 11:23:01;;;;;;;;;4.20;4.00;;;;;36.79;20.98;100398.41;5039321;28;46261;-67
2023/10/22 11:25:27;;;;;;;;;3.00;3.00;;;;;33.85;23.46;100438.00;5039743;28;45501;-67
2023/10/22 11:27:54;;;;;;;;;2.60;2.00;;;;;32.70;24.83;100442.03;5038662;28;45418;-68
2023/10/22 11:30:40;;;;;;;;;3.00;1.20;;;;;32.95;25.31;100404.38;5040251;28;45541;-67
2023/10/22 11:33:13;;;;;;;;;1.60;1.00;;;;;31.55;26.07;100352.56;5031503;28;45393;-67